UAE88 LSZH-OMDB
Flight info
| Callsign | UAE88 |
|---|---|
| Flight time | N/A |
| Altitude | 39000 |
| Route | DEGES Z2 XEBIX L607 ELMEM N606 GIRIS DCT TISAX DCT NAXAV DCT GIKEB DCT ROSKA DCT ROTAR DCT AIOSA DCT LATAN DCT SALUN N705 MMA P751 DASUM Y234 FYM M872 KULKI/N0487F410 M872 BDB Y214 RAPMA DCT KUVSO DCT KATIT DCT PEKEM M628 RIGIL G783 ELUDA/N0464F350 G783 ASPED Q308 KIPOK Q568 IMPED |
| Aircraft | A388/J-SADE2E3FGHIJ3J4J5M1RWXY/LB1D1 |
Departure
| Time | 2026-05-06 15:32 |
|---|---|
| Airport | Zürich Airport (LSZH) |
Arrival
| Time | N/A |
|---|---|
| Airport | Dubai International Airport (OMDB) |
| Time | Latitude | Longitude | Altitude | Speed | Heading |
|---|---|---|---|---|---|
| 2026-05-06 15:02 | 47.46206 | 8.55093 | 1398 ft | 0 kts | 155° |
| 2026-05-06 15:16 | 47.46225 | 8.55080 | 1406 ft | 4 kts | 157° |
| 2026-05-06 15:17 | 47.46245 | 8.55069 | 1407 ft | 3 kts | 161° |
| 2026-05-06 15:17 | 47.46268 | 8.55053 | 1407 ft | 4 kts | 142° |
| 2026-05-06 15:17 | 47.46284 | 8.55027 | 1406 ft | 4 kts | 117° |
| 2026-05-06 15:17 | 47.46292 | 8.54992 | 1406 ft | 4 kts | 99° |
| 2026-05-06 15:18 | 47.46295 | 8.54957 | 1404 ft | 4 kts | 96° |
| 2026-05-06 15:18 | 47.46297 | 8.54917 | 1405 ft | 4 kts | 95° |
| 2026-05-06 15:18 | 47.46300 | 8.54878 | 1404 ft | 4 kts | 95° |
| 2026-05-06 15:18 | 47.46302 | 8.54840 | 1404 ft | 4 kts | 88° |
| 2026-05-06 15:19 | 47.46297 | 8.54805 | 1404 ft | 4 kts | 63° |
| 2026-05-06 15:19 | 47.46285 | 8.54785 | 1404 ft | 4 kts | 24° |
| 2026-05-06 15:19 | 47.46265 | 8.54781 | 1404 ft | 4 kts | 351° |
| 2026-05-06 15:19 | 47.46240 | 8.54792 | 1404 ft | 4 kts | 338° |
| 2026-05-06 15:20 | 47.46223 | 8.54803 | 1405 ft | 0 kts | 334° |
| 2026-05-06 15:24 | 47.46224 | 8.54802 | 1406 ft | 1 kts | 334° |
| 2026-05-06 15:24 | 47.46252 | 8.54782 | 1401 ft | 7 kts | 334° |
| 2026-05-06 15:24 | 47.46309 | 8.54751 | 1394 ft | 10 kts | 355° |
| 2026-05-06 15:25 | 47.46385 | 8.54779 | 1403 ft | 12 kts | 20° |
| 2026-05-06 15:25 | 47.46464 | 8.54778 | 1401 ft | 11 kts | 335° |
| 2026-05-06 15:25 | 47.46535 | 8.54730 | 1402 ft | 11 kts | 335° |
| 2026-05-06 15:25 | 47.46607 | 8.54681 | 1405 ft | 12 kts | 335° |
| 2026-05-06 15:26 | 47.46686 | 8.54628 | 1404 ft | 14 kts | 335° |
| 2026-05-06 15:26 | 47.46773 | 8.54537 | 1385 ft | 18 kts | 311° |
| 2026-05-06 15:26 | 47.46836 | 8.54417 | 1384 ft | 13 kts | 318° |
| 2026-05-06 15:26 | 47.46916 | 8.54338 | 1384 ft | 14 kts | 332° |
| 2026-05-06 15:27 | 47.47004 | 8.54276 | 1386 ft | 14 kts | 335° |
| 2026-05-06 15:27 | 47.47122 | 8.54195 | 1401 ft | 21 kts | 335° |
| 2026-05-06 15:27 | 47.47253 | 8.54105 | 1402 ft | 20 kts | 335° |
| 2026-05-06 15:27 | 47.47377 | 8.54021 | 1403 ft | 19 kts | 335° |
| 2026-05-06 15:28 | 47.47448 | 8.53974 | 1401 ft | 16 kts | 334° |
| 2026-05-06 15:28 | 47.47537 | 8.53908 | 1410 ft | 12 kts | 334° |
| 2026-05-06 15:28 | 47.47599 | 8.53832 | 1411 ft | 11 kts | 299° |
| 2026-05-06 15:28 | 47.47604 | 8.53739 | 1412 ft | 8 kts | 251° |
| 2026-05-06 15:29 | 47.47585 | 8.53674 | 1406 ft | 6 kts | 245° |
| 2026-05-06 15:29 | 47.47570 | 8.53626 | 1412 ft | 3 kts | 232° |
| 2026-05-06 15:29 | 47.47559 | 8.53615 | 1412 ft | 2 kts | 190° |
| 2026-05-06 15:29 | 47.47542 | 8.53619 | 1411 ft | 5 kts | 165° |
| 2026-05-06 15:30 | 47.47522 | 8.53629 | 1410 ft | 0 kts | 155° |
| 2026-05-06 15:30 | 47.47516 | 8.53633 | 1411 ft | 8 kts | 155° |
| 2026-05-06 15:31 | 47.47291 | 8.53787 | 1402 ft | 74 kts | 155° |
| 2026-05-06 15:31 | 47.46620 | 8.54248 | 1383 ft | 136 kts | 155° |
| 2026-05-06 15:31 | 47.45643 | 8.54913 | 1455 ft | 166 kts | 156° |
| 2026-05-06 15:32 | 47.43590 | 8.56383 | 2569 ft | 168 kts | 159° |
| 2026-05-06 15:32 | 47.42532 | 8.57160 | 3089 ft | 171 kts | 159° |
| 2026-05-06 15:32 | 47.41454 | 8.57907 | 3529 ft | 174 kts | 163° |
| 2026-05-06 15:32 | 47.40330 | 8.58586 | 4145 ft | 174 kts | 160° |
| 2026-05-06 15:33 | 47.39427 | 8.59841 | 4704 ft | 189 kts | 120° |
| 2026-05-06 15:33 | 47.39198 | 8.61829 | 5018 ft | 211 kts | 83° |
| 2026-05-06 15:33 | 47.39797 | 8.63922 | 5043 ft | 236 kts | 52° |
| 2026-05-06 15:33 | 47.40960 | 8.65879 | 5054 ft | 271 kts | 45° |
| 2026-05-06 15:34 | 47.42248 | 8.67988 | 5057 ft | 291 kts | 49° |
| 2026-05-06 15:34 | 47.43541 | 8.70386 | 5841 ft | 293 kts | 52° |
| 2026-05-06 15:34 | 47.44752 | 8.72832 | 6730 ft | 298 kts | 54° |
| 2026-05-06 15:34 | 47.45902 | 8.75349 | 7521 ft | 302 kts | 62° |
| 2026-05-06 15:35 | 47.46587 | 8.78273 | 8379 ft | 302 kts | 83° |
| 2026-05-06 15:35 | 47.46700 | 8.81388 | 9131 ft | 308 kts | 91° |
| 2026-05-06 15:35 | 47.46731 | 8.84570 | 9982 ft | 310 kts | 91° |
| 2026-05-06 15:35 | 47.46762 | 8.87832 | 10445 ft | 326 kts | 91° |
| 2026-05-06 15:36 | 47.46794 | 8.91303 | 10657 ft | 347 kts | 91° |
| 2026-05-06 15:36 | 47.46828 | 8.94952 | 11038 ft | 360 kts | 91° |
| 2026-05-06 15:36 | 47.46867 | 8.98662 | 11767 ft | 361 kts | 91° |
| 2026-05-06 15:36 | 47.46909 | 9.02390 | 12459 ft | 364 kts | 91° |
| 2026-05-06 15:37 | 47.46942 | 9.06140 | 13185 ft | 366 kts | 92° |
| 2026-05-06 15:37 | 47.46972 | 9.09919 | 13896 ft | 369 kts | 92° |
| 2026-05-06 15:37 | 47.47001 | 9.13727 | 14516 ft | 372 kts | 92° |
| 2026-05-06 15:37 | 47.47030 | 9.17553 | 15141 ft | 374 kts | 92° |
| 2026-05-06 15:38 | 47.47058 | 9.21357 | 15767 ft | 376 kts | 93° |
| 2026-05-06 15:38 | 47.47086 | 9.25243 | 16362 ft | 379 kts | 93° |
| 2026-05-06 15:38 | 47.47112 | 9.29152 | 16974 ft | 382 kts | 93° |
| 2026-05-06 15:38 | 47.47137 | 9.33082 | 17561 ft | 385 kts | 93° |
| 2026-05-06 15:39 | 47.47160 | 9.37063 | 18145 ft | 387 kts | 94° |
| 2026-05-06 15:39 | 47.47183 | 9.41066 | 18648 ft | 390 kts | 94° |
| 2026-05-06 15:39 | 47.47206 | 9.45098 | 19143 ft | 393 kts | 94° |